Terminal Aerodrome Forecast
Issued by NWS

Home | Current Version | Previous Version | Text Only | Print | Product List | Glossary On
Versions: 1 2 3 4 5 6 7 8 9 10 11 12 13 14 15 16 17 18 19 20
000
FTAK31 PANC 220528
TAFATK
TAF
PATK 220528Z 2206/2306 00000KT P6SM -RA OVC040
     FM221800 VRB03KT P6SM -RA SCT015 BKN025=

USA.gov is the U.S. government's official web portal to all federal, state and local government web resources and services.